Vidéos.

Vous avez récemment participé à un vol avec l’équipe Fly & Fun ? Retrouvez votre nom et prénom dans la liste juste en dessous pour télécharger votre vidéo avec votre mot de passe fourni par l’équipe !

METAR :

LFQA 070730Z AUTO 30002KT 9000 NSC 10/10 Q1029


vue en direct sur l'aérodrome
mentions légales politique de confidentialité
Cochet Concept
cx